Time;durP1;ratioP1;P1;durP2;ratioP2;P2;SDS_P1;SDS_P2;PMS_P1;PMS_P2;Temp;Humidity;BMP_temperature;BMP_pressure;BME280_temperature;BME280_humidity;BME280_pressure;Samples;Min_cycle;Max_cycle;Signal;HPM_P1;HPM_P2
2020/12/03 00:01:49;;;;;;;19.60;14.13;;;3.40;1.00;;;;;;5015834;28;20408;-66
2020/12/03 00:04:16;;;;;;;21.15;15.00;;;3.50;1.00;;;;;;5015552;28;20436;-66
2020/12/03 00:06:49;;;;;;;20.00;13.83;;;3.50;1.00;;;;;;5014881;28;20531;-66
2020/12/03 00:09:18;;;;;;;22.42;16.35;;;3.40;1.00;;;;;;5016567;28;20412;-66
2020/12/03 00:11:48;;;;;;;24.53;15.90;;;3.40;1.00;;;;;;5017579;28;20469;-66
2020/12/03 00:14:14;;;;;;;20.85;16.67;;;3.40;1.00;;;;;;5019825;28;20408;-66
2020/12/03 00:16:42;;;;;;;21.70;15.67;;;3.40;1.00;;;;;;5017526;28;20485;-66
2020/12/03 00:19:12;;;;;;;19.98;15.10;;;3.40;1.00;;;;;;5017968;28;20421;-66
2020/12/03 00:21:41;;;;;;;23.20;15.48;;;3.40;1.00;;;;;;5014727;28;20421;-66
2020/12/03 00:24:09;;;;;;;24.38;17.23;;;3.40;1.00;;;;;;5014742;28;21119;-66
2020/12/03 00:26:35;;;;;;;22.33;16.42;;;3.50;1.00;;;;;;5015166;28;20414;-66
2020/12/03 00:29:03;;;;;;;20.52;15.30;;;3.50;1.00;;;;;;5014744;28;20962;-67
2020/12/03 00:31:29;;;;;;;23.70;15.95;;;3.50;1.00;;;;;;5014786;28;20754;-67
2020/12/03 00:33:56;;;;;;;23.38;16.35;;;3.60;1.00;;;;;;5014617;28;20462;-66
2020/12/03 00:36:22;;;;;;;23.75;16.45;;;3.50;1.00;;;;;;5014799;28;20416;-66
2020/12/03 00:38:49;;;;;;;22.92;15.98;;;3.50;1.00;;;;;;5014668;28;20412;-66
2020/12/03 00:41:17;;;;;;;22.27;16.40;;;3.50;1.00;;;;;;5014929;28;20471;-67
2020/12/03 00:43:43;;;;;;;23.98;16.70;;;3.50;1.00;;;;;;5014674;28;20595;-66
2020/12/03 00:46:10;;;;;;;23.40;15.57;;;3.50;1.00;;;;;;5014517;28;20436;-66
2020/12/03 00:48:37;;;;;;;21.58;15.93;;;3.60;1.00;;;;;;5014668;28;20416;-66
2020/12/03 00:51:04;;;;;;;25.73;17.40;;;3.60;1.00;;;;;;5014290;28;20540;-67
2020/12/03 00:53:30;;;;;;;23.98;16.98;;;3.60;1.00;;;;;;5014687;28;20412;-66
2020/12/03 00:55:57;;;;;;;23.35;17.20;;;3.60;1.00;;;;;;5014473;28;20408;-67
2020/12/03 00:58:23;;;;;;;23.98;17.90;;;3.60;1.00;;;;;;5014486;28;20405;-66
2020/12/03 01:00:49;;;;;;;24.65;17.25;;;3.60;1.00;;;;;;5014229;28;20467;-66
2020/12/03 01:03:16;;;;;;;26.52;18.77;;;3.60;1.00;;;;;;5014016;28;20416;-67
2020/12/03 01:05:42;;;;;;;28.30;18.83;;;3.50;1.00;;;;;;5014146;28;20429;-66
2020/12/03 01:08:08;;;;;;;27.13;19.00;;;3.50;1.00;;;;;;5014238;28;20494;-66
2020/12/03 01:10:35;;;;;;;24.88;18.00;;;3.50;1.00;;;;;;5014514;28;20448;-66
2020/12/03 01:13:03;;;;;;;23.80;17.73;;;3.50;1.00;;;;;;5014230;28;20824;-67
2020/12/03 01:15:30;;;;;;;24.83;18.50;;;3.60;1.00;;;;;;5014061;28;20467;-67
2020/12/03 01:17:57;;;;;;;26.23;17.80;;;3.60;1.00;;;;;;5014028;28;20475;-66
2020/12/03 01:20:26;;;;;;;24.20;17.43;;;3.70;1.00;;;;;;5012629;28;20944;-66
2020/12/03 01:22:53;;;;;;;25.60;17.58;;;3.70;1.00;;;;;;5013926;28;20409;-67
2020/12/03 01:25:22;;;;;;;25.17;17.73;;;3.60;1.00;;;;;;5013847;28;20429;-66
2020/12/03 01:27:48;;;;;;;25.52;18.08;;;3.70;1.00;;;;;;5013991;28;20470;-66
2020/12/03 01:30:15;;;;;;;25.27;17.15;;;3.60;1.00;;;;;;5013860;28;20478;-67
2020/12/03 01:32:42;;;;;;;24.55;16.83;;;3.70;1.00;;;;;;5013318;28;20439;-67
2020/12/03 01:35:10;;;;;;;25.98;18.05;;;3.70;1.00;;;;;;5013637;28;20461;-66
2020/12/03 01:37:38;;;;;;;24.08;17.80;;;3.60;1.00;;;;;;5013727;28;20833;-66
2020/12/03 01:40:06;;;;;;;24.05;17.50;;;3.60;1.00;;;;;;5013702;28;20417;-67
2020/12/03 01:42:32;;;;;;;25.25;18.10;;;3.60;1.00;;;;;;5013290;28;20409;-66
2020/12/03 01:44:58;;;;;;;24.77;16.70;;;3.70;1.00;;;;;;5013805;28;20424;-66
2020/12/03 01:47:29;;;;;;;22.25;17.50;;;3.60;1.00;;;;;;5013326;28;20416;-66
2020/12/03 01:49:56;;;;;;;24.00;16.13;;;3.60;1.00;;;;;;5013540;28;20522;-66
2020/12/03 01:52:22;;;;;;;23.60;16.40;;;3.70;1.00;;;;;;5013501;28;20449;-66
2020/12/03 01:54:50;;;;;;;25.40;17.33;;;3.60;1.00;;;;;;5013286;28;20463;-66
2020/12/03 01:57:41;;;;;;;24.23;16.90;;;3.60;1.00;;;;;;5013447;28;20492;-65
2020/12/03 02:00:09;;;;;;;23.07;17.13;;;3.60;1.00;;;;;;5010512;28;20897;-66
2020/12/03 02:02:35;;;;;;;23.50;16.58;;;3.60;1.00;;;;;;5013464;28;20421;-67
2020/12/03 02:05:11;;;;;;;22.50;16.50;;;3.60;1.00;;;;;;5014023;28;21094;-67
2020/12/03 02:07:37;;;;;;;23.83;16.53;;;3.60;1.00;;;;;;5013915;28;20458;-66
2020/12/03 02:10:05;;;;;;;22.83;16.40;;;3.60;1.00;;;;;;5013127;28;20413;-66
2020/12/03 02:12:31;;;;;;;23.77;16.40;;;3.60;1.00;;;;;;5012621;28;20417;-66
2020/12/03 02:14:57;;;;;;;21.80;16.23;;;3.60;1.00;;;;;;5013299;28;20409;-66
2020/12/03 02:17:24;;;;;;;23.95;17.05;;;3.70;1.00;;;;;;5013253;28;20412;-66
2020/12/03 02:19:56;;;;;;;24.25;17.77;;;3.60;1.00;;;;;;5013635;28;20413;-66
2020/12/03 02:22:23;;;;;;;22.75;16.92;;;3.70;1.00;;;;;;5013533;28;20877;-66
2020/12/03 02:24:49;;;;;;;23.10;15.70;;;3.70;1.00;;;;;;5015867;28;20428;-66
2020/12/03 02:27:18;;;;;;;22.77;17.05;;;3.60;1.00;;;;;;5013328;28;20820;-66
2020/12/03 02:29:44;;;;;;;24.15;17.23;;;3.60;1.00;;;;;;5012611;28;20916;-67
2020/12/03 02:32:10;;;;;;;21.45;15.95;;;3.70;1.00;;;;;;5012744;28;20421;-67
2020/12/03 02:34:37;;;;;;;24.05;16.33;;;3.70;1.00;;;;;;5012302;28;20409;-66
2020/12/03 02:37:05;;;;;;;23.15;16.23;;;3.60;1.00;;;;;;5012829;28;20417;-66
2020/12/03 02:39:33;;;;;;;25.13;17.75;;;3.50;1.00;;;;;;5012239;28;20462;-65
2020/12/03 02:42:00;;;;;;;24.25;17.02;;;3.40;1.00;;;;;;5012500;28;20412;-66
2020/12/03 02:44:26;;;;;;;25.10;17.05;;;3.50;96.00;;;;;;5012175;28;20429;-65
2020/12/03 02:46:53;;;;;;;21.58;15.32;;;3.50;99.90;;;;;;5013223;28;20416;-66
2020/12/03 02:49:19;;;;;;;23.33;17.20;;;3.60;34.20;;;;;;5015349;28;20459;-66
2020/12/03 02:51:45;;;;;;;24.20;17.20;;;3.60;1.00;;;;;;5014263;28;20416;-65
2020/12/03 02:54:14;;;;;;;25.33;17.90;;;3.60;1.00;;;;;;5012159;28;20506;-65
2020/12/03 02:56:41;;;;;;;23.98;17.40;;;3.60;1.00;;;;;;5012311;28;20409;-65
2020/12/03 02:59:09;;;;;;;22.27;16.80;;;3.60;1.00;;;;;;5012221;28;20412;-66
2020/12/03 03:01:35;;;;;;;25.38;17.63;;;3.70;1.00;;;;;;5012004;28;20852;-66
2020/12/03 03:04:03;;;;;;;21.98;16.75;;;3.70;1.00;;;;;;5011910;28;20417;-66
2020/12/03 03:06:29;;;;;;;22.42;15.73;;;3.70;1.00;;;;;;5011899;28;20520;-66
2020/12/03 03:08:55;;;;;;;24.08;15.75;;;3.70;1.00;;;;;;5012053;28;20440;-65
2020/12/03 03:11:22;;;;;;;23.73;16.92;;;3.80;1.00;;;;;;5012089;28;20416;-66
2020/12/03 03:13:48;;;;;;;21.85;15.82;;;3.70;1.00;;;;;;5011927;28;20467;-66
2020/12/03 03:16:14;;;;;;;20.50;15.30;;;3.80;1.00;;;;;;5011685;28;20413;-66
2020/12/03 03:18:40;;;;;;;24.70;16.45;;;3.70;1.00;;;;;;5012102;28;20824;-66
2020/12/03 03:21:06;;;;;;;21.52;16.40;;;3.70;1.00;;;;;;5011513;28;20471;-67
2020/12/03 03:23:32;;;;;;;21.35;15.32;;;3.80;1.00;;;;;;5012264;28;20405;-67
2020/12/03 03:25:59;;;;;;;20.17;15.52;;;3.80;1.00;;;;;;5014690;28;20844;-67
2020/12/03 03:28:26;;;;;;;20.20;14.97;;;3.80;1.00;;;;;;5011782;28;20515;-66
2020/12/03 03:30:52;;;;;;;21.15;15.52;;;3.80;1.00;;;;;;5011549;28;20467;-66
2020/12/03 03:33:18;;;;;;;21.73;14.70;;;3.80;1.00;;;;;;5011396;28;20417;-66
2020/12/03 03:35:44;;;;;;;21.05;16.15;;;3.90;1.00;;;;;;5011448;28;20523;-66
2020/12/03 03:38:10;;;;;;;20.00;14.82;;;3.90;1.00;;;;;;5011592;28;20467;-66
2020/12/03 03:40:37;;;;;;;19.37;14.60;;;3.90;1.00;;;;;;5011595;28;20408;-66
2020/12/03 03:43:03;;;;;;;20.02;15.27;;;3.90;1.00;;;;;;5010642;28;20416;-67
2020/12/03 03:45:29;;;;;;;20.75;14.90;;;3.90;1.00;;;;;;5011512;28;20474;-67
2020/12/03 03:47:56;;;;;;;18.88;14.48;;;4.00;1.00;;;;;;5011550;28;20833;-66
2020/12/03 03:50:22;;;;;;;19.88;14.15;;;4.00;1.00;;;;;;5011118;28;20474;-66
2020/12/03 03:52:48;;;;;;;20.85;14.18;;;4.00;1.00;;;;;;5011397;28;20499;-66
2020/12/03 03:55:15;;;;;;;18.65;13.95;;;3.90;1.00;;;;;;5010991;28;20471;-66
2020/12/03 03:57:41;;;;;;;19.80;13.70;;;3.90;1.00;;;;;;5011415;28;20413;-67
2020/12/03 04:00:07;;;;;;;17.30;13.20;;;4.00;1.00;;;;;;5011131;28;20763;-65
2020/12/03 04:02:34;;;;;;;17.20;13.60;;;3.90;1.00;;;;;;5010615;28;20443;-65
2020/12/03 04:05:00;;;;;;;19.23;14.03;;;4.00;1.00;;;;;;5011021;28;20433;-66
2020/12/03 04:07:26;;;;;;;18.42;14.15;;;4.00;1.00;;;;;;5010919;28;20801;-65
2020/12/03 04:09:52;;;;;;;18.15;13.50;;;3.90;1.00;;;;;;5011491;28;20408;-66
2020/12/03 04:12:19;;;;;;;19.65;14.48;;;3.90;1.00;;;;;;5010860;28;20491;-66
2020/12/03 04:14:45;;;;;;;18.58;14.05;;;3.90;1.00;;;;;;5011170;28;20884;-65
2020/12/03 04:17:11;;;;;;;18.65;14.75;;;3.90;1.00;;;;;;5011133;28;20412;-66
2020/12/03 04:19:38;;;;;;;18.60;13.52;;;3.90;1.00;;;;;;5010840;28;20889;-65
2020/12/03 04:22:04;;;;;;;19.20;13.60;;;3.90;1.00;;;;;;5011222;28;20408;-66
2020/12/03 04:24:30;;;;;;;18.80;13.75;;;4.00;1.00;;;;;;5010873;28;20832;-65
2020/12/03 04:26:56;;;;;;;21.65;14.50;;;3.90;1.00;;;;;;5011144;28;20413;-66
2020/12/03 04:29:22;;;;;;;20.63;14.30;;;3.90;1.00;;;;;;5010977;28;21119;-65
2020/12/03 04:31:49;;;;;;;20.00;13.85;;;3.90;53.10;;;;;;5010929;28;20416;-66
2020/12/03 04:34:15;;;;;;;18.70;13.40;;;4.00;24.50;;;;;;5010926;28;20821;-66
2020/12/03 04:36:42;;;;;;;20.77;13.98;;;4.00;2.10;;;;;;5010707;28;20936;-66
2020/12/03 04:39:08;;;;;;;20.75;14.43;;;3.90;1.00;;;;;;5010840;28;20416;-66
2020/12/03 04:41:35;;;;;;;19.67;14.02;;;3.90;35.40;;;;;;5010300;28;20412;-66
2020/12/03 04:44:06;;;;;;;20.63;14.00;;;3.90;99.20;;;;;;5010743;28;20408;-66
2020/12/03 04:46:39;;;;;;;20.80;14.18;;;3.90;99.90;;;;;;5010502;28;20976;-66
2020/12/03 04:49:23;;;;;;;19.08;13.15;;;3.90;99.90;;;;;;5011076;28;20478;-66
2020/12/03 04:52:23;;;;;;;19.90;13.80;;;3.90;99.90;;;;;;5010586;28;20413;-67
2020/12/03 04:54:58;;;;;;;17.40;14.02;;;3.90;56.40;;;;;;5013865;28;20408;-66
2020/12/03 04:57:30;;;;;;;19.33;13.77;;;3.90;99.90;;;;;;5014636;28;20416;-67
2020/12/03 05:00:01;;;;;;;18.40;12.70;;;3.90;99.90;;;;;;5014483;28;20405;-66
2020/12/03 05:02:56;;;;;;;16.05;12.13;;;4.00;73.30;;;;;;5014339;28;20417;-65
2020/12/03 05:05:27;;;;;;;20.40;13.80;;;4.00;44.30;;;;;;5014017;28;20428;-65
2020/12/03 05:08:01;;;;;;;17.90;13.18;;;4.00;20.80;;;;;;5014448;28;20409;-65
2020/12/03 05:10:35;;;;;;;16.35;11.80;;;4.00;1.00;;;;;;5014154;28;20471;-65
2020/12/03 05:13:01;;;;;;;16.70;12.82;;;4.00;1.00;;;;;;5014070;28;20937;-66
2020/12/03 05:15:31;;;;;;;18.80;12.68;;;4.00;1.00;;;;;;5014079;28;20833;-65
2020/12/03 05:18:18;;;;;;;14.15;11.27;;;4.00;1.00;;;;;;5012738;28;20429;-66
2020/12/03 05:20:48;;;;;;;14.65;11.45;;;3.90;1.00;;;;;;5015872;28;20417;-66
2020/12/03 05:23:18;;;;;;;14.90;11.07;;;4.00;1.00;;;;;;5016717;28;20884;-65
2020/12/03 05:25:45;;;;;;;14.48;11.40;;;3.90;1.00;;;;;;5014028;28;20868;-65
2020/12/03 05:28:39;;;;;;;15.13;11.10;;;3.90;1.00;;;;;;5013553;28;20470;-66
2020/12/03 05:31:10;;;;;;;16.27;12.25;;;4.00;1.00;;;;;;5013870;28;20471;-65
2020/12/03 05:33:37;;;;;;;14.65;11.02;;;3.90;1.00;;;;;;5013636;28;20413;-65
2020/12/03 05:36:03;;;;;;;14.35;10.63;;;4.00;1.00;;;;;;5013935;28;20439;-65
2020/12/03 05:38:30;;;;;;;14.90;11.07;;;4.00;1.00;;;;;;5013199;28;20471;-65
2020/12/03 05:40:59;;;;;;;14.30;10.93;;;3.90;1.00;;;;;;5013497;28;20412;-65
2020/12/03 05:43:25;;;;;;;15.18;11.77;;;3.90;1.00;;;;;;5013679;28;20956;-66
2020/12/03 05:45:52;;;;;;;16.02;11.10;;;3.90;1.00;;;;;;5013393;28;20487;-65
2020/12/03 05:48:20;;;;;;;15.18;11.95;;;3.90;1.00;;;;;;5013362;28;20408;-65
2020/12/03 05:50:47;;;;;;;14.30;10.38;;;3.90;1.00;;;;;;5013037;28;20415;-65
2020/12/03 05:53:15;;;;;;;16.60;12.10;;;4.00;1.00;;;;;;5012826;28;20498;-65
2020/12/03 05:55:42;;;;;;;15.43;11.13;;;4.00;1.00;;;;;;5013496;28;20409;-65
2020/12/03 05:58:14;;;;;;;14.55;11.38;;;4.00;1.00;;;;;;5013469;28;20471;-65
2020/12/03 06:00:41;;;;;;;15.68;12.35;;;3.90;1.00;;;;;;5013455;28;20443;-64
2020/12/03 06:03:24;;;;;;;15.95;11.73;;;3.90;1.00;;;;;;5012717;28;20421;-65
2020/12/03 06:06:05;;;;;;;17.42;11.75;;;3.80;1.00;;;;;;5012458;28;20433;-65
2020/12/03 06:08:47;;;;;;;17.27;12.93;;;3.80;82.80;;;;;;5013583;28;20820;-66
2020/12/03 06:11:33;;;;;;;14.30;11.32;;;3.80;49.00;;;;;;5013037;28;20409;-67
2020/12/03 06:14:52;;;;;;;17.35;12.48;;;3.80;50.10;;;;;;5012756;28;20409;-66
2020/12/03 06:17:30;;;;;;;16.75;12.00;;;3.80;62.20;;;;;;5013205;28;20463;-66
2020/12/03 06:20:05;;;;;;;15.70;12.30;;;3.70;27.90;;;;;;5012854;28;20420;-66
2020/12/03 06:22:45;;;;;;;18.48;12.52;;;3.70;99.90;;;;;;5012714;28;20463;-66
2020/12/03 06:25:28;;;;;;;15.40;12.13;;;3.70;99.90;;;;;;5013251;28;20429;-67
2020/12/03 06:28:22;;;;;;;17.23;12.90;;;3.70;1.00;;;;;;5013854;28;20479;-68
2020/12/03 06:30:56;;;;;;;17.58;12.13;;;3.70;11.10;;;;;;5015425;28;20533;-66
2020/12/03 06:33:45;;;;;;;19.05;12.93;;;3.70;15.60;;;;;;5020684;28;20421;-66
2020/12/03 06:36:25;;;;;;;16.97;12.47;;;3.60;40.20;;;;;;5017289;28;20467;-66
2020/12/03 06:39:12;;;;;;;21.67;13.37;;;3.70;60.30;;;;;;5013556;28;21044;-65
2020/12/03 06:41:49;;;;;;;19.10;13.52;;;3.50;38.80;;;;;;5013452;28;20413;-65
2020/12/03 06:44:21;;;;;;;17.80;12.13;;;3.50;47.40;;;;;;5012992;28;20416;-65
2020/12/03 06:47:20;;;;;;;19.70;13.87;;;3.50;99.90;;;;;;5012152;28;20848;-63
2020/12/03 06:50:16;;;;;;;20.37;13.83;;;3.40;99.90;;;;;;5012246;28;21203;-65
2020/12/03 06:53:09;;;;;;;17.15;13.60;;;3.50;99.90;;;;;;5012240;28;20413;-64
2020/12/03 06:56:11;;;;;;;18.40;12.00;;;3.40;91.90;;;;;;5012220;28;20407;-64
2020/12/03 06:59:01;;;;;;;18.70;13.50;;;3.40;99.90;;;;;;5011900;28;20445;-64
2020/12/03 07:02:07;;;;;;;21.13;13.60;;;3.40;59.60;;;;;;5012560;28;20482;-63
2020/12/03 07:04:59;;;;;;;21.15;14.75;;;3.30;99.90;;;;;;5017702;28;20408;-64
2020/12/03 07:07:51;;;;;;;21.35;14.15;;;3.30;56.40;;;;;;5019254;28;20486;-65
2020/12/03 07:11:07;;;;;;;20.58;13.75;;;3.40;84.60;;;;;;5014178;28;20408;-64
2020/12/03 07:14:06;;;;;;;16.65;12.43;;;3.40;1.00;;;;;;5017748;28;20420;-64
2020/12/03 07:17:11;;;;;;;17.25;12.68;;;3.40;1.00;;;;;;5017206;28;20409;-65
2020/12/03 07:20:24;;;;;;;17.90;13.07;;;3.50;1.00;;;;;;5020573;28;20417;-64
2020/12/03 07:22:56;;;;;;;17.15;12.40;;;3.40;1.00;;;;;;4958982;29;20414;-64
2020/12/03 07:25:22;;;;;;;19.45;13.70;;;3.40;1.00;;;;;;4962543;29;20434;-64
2020/12/03 07:28:07;;;;;;;18.43;12.67;;;3.50;1.00;;;;;;4990830;28;20448;-63
2020/12/03 07:30:50;;;;;;;19.63;12.63;;;3.60;1.00;;;;;;5012222;28;20478;-63
2020/12/03 07:33:32;;;;;;;19.15;13.43;;;3.60;1.00;;;;;;5008989;28;20971;-64
2020/12/03 07:36:15;;;;;;;19.17;13.20;;;3.50;1.00;;;;;;5012407;28;20417;-65
2020/12/03 07:38:45;;;;;;;18.77;13.23;;;3.50;1.00;;;;;;5011958;28;20467;-66
2020/12/03 07:41:16;;;;;;;17.67;13.70;;;3.60;1.00;;;;;;5012586;28;20479;-63
2020/12/03 07:43:43;;;;;;;16.95;12.05;;;3.60;1.00;;;;;;5011187;28;20413;-64
2020/12/03 07:46:35;;;;;;;15.55;12.10;;;3.70;1.00;;;;;;5011539;28;20428;-65
2020/12/03 07:49:01;;;;;;;18.17;13.00;;;3.70;99.90;;;;;;5011999;28;20466;-64
2020/12/03 07:51:28;;;;;;;15.98;12.48;;;3.70;99.90;;;;;;5011615;28;20417;-65
2020/12/03 07:54:23;;;;;;;19.30;14.30;;;3.70;99.90;;;;;;5011684;28;20475;-65
2020/12/03 07:56:49;;;;;;;18.42;12.82;;;3.60;99.90;;;;;;5010850;28;20404;-64
2020/12/03 07:59:40;;;;;;;17.63;12.52;;;3.60;1.00;;;;;;5011314;28;20443;-64
2020/12/03 08:02:49;;;;;;;19.60;12.73;;;3.60;1.00;;;;;;5007515;28;20878;-64
2020/12/03 08:05:41;;;;;;;18.95;12.45;;;3.60;1.00;;;;;;5011565;28;20482;-64
2020/12/03 08:08:28;;;;;;;19.40;13.00;;;3.50;1.00;;;;;;5011974;28;20447;-63
2020/12/03 08:10:55;;;;;;;17.48;13.05;;;3.60;1.00;;;;;;5012101;28;20424;-62
2020/12/03 08:13:27;;;;;;;16.65;12.30;;;3.60;1.00;;;;;;5013635;28;20473;-66
2020/12/03 08:15:58;;;;;;;18.20;12.50;;;3.60;1.00;;;;;;5010979;28;20413;-65
2020/12/03 08:18:46;;;;;;;18.63;12.57;;;3.60;1.00;;;;;;5011289;28;20404;-66
2020/12/03 08:21:26;;;;;;;;;;;;;;;;;;;;;
2020/12/03 08:23:53;;;;;;;16.53;12.03;;;3.70;1.00;;;;;;5011193;28;20828;-64
2020/12/03 08:26:27;;;;;;;15.82;11.30;;;3.70;1.00;;;;;;5011316;28;20837;-64
2020/12/03 08:28:53;;;;;;;16.50;11.70;;;3.80;1.00;;;;;;5013182;28;20412;-65
2020/12/03 08:31:19;;;;;;;15.20;12.13;;;3.80;99.90;;;;;;5015415;28;20470;-65
2020/12/03 08:33:51;;;;;;;15.00;11.65;;;3.80;99.90;;;;;;5014861;28;20417;-65
2020/12/03 08:36:18;;;;;;;14.25;10.50;;;3.80;99.90;;;;;;5014675;28;20870;-66
2020/12/03 08:38:51;;;;;;;16.05;11.93;;;3.80;99.90;;;;;;5014459;28;20416;-65
2020/12/03 08:41:19;;;;;;;14.25;11.32;;;3.80;99.90;;;;;;5015142;28;20467;-66
2020/12/03 08:43:49;;;;;;;14.20;10.82;;;3.80;99.90;;;;;;5015276;28;20490;-66
2020/12/03 08:46:18;;;;;;;14.63;10.85;;;3.90;99.90;;;;;;5014479;28;20828;-66
2020/12/03 08:48:45;;;;;;;12.38;9.65;;;3.90;99.90;;;;;;5015819;28;20538;-65
2020/12/03 08:51:13;;;;;;;14.38;10.00;;;3.90;99.90;;;;;;5015585;28;20818;-64
2020/12/03 08:53:44;;;;;;;13.77;10.50;;;3.80;99.90;;;;;;5014512;28;20455;-65
2020/12/03 08:56:43;;;;;;;13.55;10.68;;;3.80;99.90;;;;;;5015392;28;20444;-65
2020/12/03 08:59:13;;;;;;;13.43;9.75;;;3.80;99.90;;;;;;4956498;29;20418;-65
2020/12/03 09:01:41;;;;;;;14.77;9.73;;;3.90;99.90;;;;;;5002226;28;20778;-65
2020/12/03 09:04:10;;;;;;;13.98;11.05;;;3.90;99.90;;;;;;5014522;28;20420;-65
2020/12/03 09:06:46;;;;;;;13.10;9.80;;;3.90;99.90;;;;;;5014069;28;20448;-64
2020/12/03 09:09:13;;;;;;;16.40;10.38;;;3.90;99.90;;;;;;5014366;28;20777;-65
2020/12/03 09:11:39;;;;;;;13.88;10.48;;;3.90;99.90;;;;;;5014697;28;20476;-65
2020/12/03 09:14:07;;;;;;;12.63;10.38;;;3.90;99.90;;;;;;5014914;28;20475;-64
2020/12/03 09:16:35;;;;;;;12.73;10.23;;;3.90;99.90;;;;;;5014122;28;20413;-63
2020/12/03 09:19:01;;;;;;;14.23;9.70;;;4.00;99.90;;;;;;5014926;28;20444;-65
2020/12/03 09:21:30;;;;;;;13.50;10.53;;;3.90;99.90;;;;;;5019138;28;20417;-65
2020/12/03 09:23:57;;;;;;;13.75;9.20;;;3.90;99.90;;;;;;5014438;28;20959;-65
2020/12/03 09:26:29;;;;;;;13.57;10.32;;;3.90;99.90;;;;;;5014205;28;20429;-64
2020/12/03 09:28:57;;;;;;;13.60;10.45;;;4.00;99.90;;;;;;5013873;28;20834;-64
2020/12/03 09:31:25;;;;;;;14.00;10.87;;;3.90;99.90;;;;;;5014013;28;20466;-65
2020/12/03 09:33:52;;;;;;;12.80;10.50;;;3.90;99.90;;;;;;5013993;28;20952;-65
2020/12/03 09:36:19;;;;;;;13.95;10.38;;;3.90;99.90;;;;;;5013446;28;20984;-65
2020/12/03 09:38:48;;;;;;;12.25;9.80;;;3.80;99.90;;;;;;5013997;28;20439;-65
2020/12/03 09:41:16;;;;;;;12.43;9.88;;;3.80;99.90;;;;;;5012856;28;20427;-64
2020/12/03 09:43:46;;;;;;;15.77;10.23;;;3.80;99.90;;;;;;5013775;28;20412;-65
2020/12/03 09:46:16;;;;;;;14.00;10.60;;;3.90;99.90;;;;;;5014061;28;20479;-65
2020/12/03 09:48:44;;;;;;;12.35;9.63;;;3.90;99.90;;;;;;5013566;28;20408;-65
2020/12/03 09:51:11;;;;;;;13.48;10.20;;;3.90;99.90;;;;;;5014000;28;20420;-65
2020/12/03 09:53:37;;;;;;;12.38;10.27;;;4.00;99.90;;;;;;5013302;28;20412;-65
2020/12/03 09:56:04;;;;;;;14.60;10.70;;;3.90;99.90;;;;;;5013885;28;20424;-65
2020/12/03 09:58:30;;;;;;;12.95;9.82;;;4.00;99.90;;;;;;5013555;28;20498;-65
2020/12/03 10:01:04;;;;;;;13.30;10.43;;;4.00;99.90;;;;;;5013812;28;20421;-65
2020/12/03 10:03:48;;;;;;;13.40;10.90;;;4.00;99.90;;;;;;5012914;28;20964;-64
2020/12/03 10:06:23;;;;;;;13.47;11.20;;;4.00;99.90;;;;;;5013475;28;20433;-64
2020/12/03 10:09:34;;;;;;;12.27;10.30;;;4.10;99.90;;;;;;5013392;28;20496;-66
2020/12/03 10:12:33;;;;;;;13.27;10.35;;;4.00;99.90;;;;;;4987615;28;20417;-65
2020/12/03 10:15:39;;;;;;;12.45;9.55;;;4.10;99.90;;;;;;5013382;28;20425;-66
2020/12/03 10:18:09;;;;;;;11.77;9.00;;;4.20;99.90;;;;;;5012564;28;20479;-66
2020/12/03 10:20:37;;;;;;;12.95;9.57;;;4.30;99.90;;;;;;5013208;28;20423;-66
2020/12/03 10:23:17;;;;;;;12.77;9.10;;;4.40;99.90;;;;;;5012951;28;20453;-66
2020/12/03 10:25:53;;;;;;;12.60;9.45;;;4.40;99.90;;;;;;5013242;28;20429;-66
2020/12/03 10:28:24;;;;;;;14.00;10.43;;;4.30;99.90;;;;;;5012247;28;20429;-66
2020/12/03 10:30:54;;;;;;;14.07;9.90;;;4.40;99.90;;;;;;5013182;28;20475;-65
2020/12/03 10:33:23;;;;;;;11.35;9.20;;;4.50;99.90;;;;;;5012900;28;20448;-64
2020/12/03 10:35:52;;;;;;;14.85;9.93;;;4.60;99.90;;;;;;5013528;28;20413;-64
2020/12/03 10:38:24;;;;;;;14.00;9.75;;;4.50;98.50;;;;;;5014625;28;20416;-64
2020/12/03 10:40:54;;;;;;;11.13;9.20;;;4.60;99.90;;;;;;5012915;28;20452;-64
2020/12/03 10:43:26;;;;;;;12.43;9.27;;;4.70;99.90;;;;;;5015678;28;20468;-64
2020/12/03 10:45:58;;;;;;;12.03;9.00;;;4.70;65.10;;;;;;5013012;28;20444;-64
2020/12/03 10:48:26;;;;;;;11.10;9.30;;;4.70;46.80;;;;;;5011923;28;20461;-65
2020/12/03 10:50:56;;;;;;;10.88;9.23;;;4.70;27.00;;;;;;5012462;28;20920;-66
2020/12/03 10:53:25;;;;;;;11.43;9.30;;;4.70;28.70;;;;;;5012029;28;20490;-63
2020/12/03 10:55:59;;;;;;;12.98;9.45;;;4.80;4.50;;;;;;5012883;28;20409;-63
2020/12/03 10:58:32;;;;;;;10.55;8.68;;;4.80;1.00;;;;;;5012141;28;20413;-64
2020/12/03 11:01:05;;;;;;;11.60;9.02;;;4.90;1.00;;;;;;5012584;28;20413;-64
2020/12/03 11:03:34;;;;;;;11.02;8.95;;;4.90;1.00;;;;;;5012722;28;20826;-64
2020/12/03 11:06:00;;;;;;;11.52;8.77;;;4.90;1.00;;;;;;5012628;28;20487;-63
2020/12/03 11:08:35;;;;;;;10.82;8.68;;;5.10;1.00;;;;;;5012276;28;20829;-62
2020/12/03 11:11:02;;;;;;;12.73;9.00;;;4.90;1.00;;;;;;5012355;28;20459;-63
2020/12/03 11:13:29;;;;;;;11.68;8.60;;;4.90;1.00;;;;;;5012882;28;20487;-63
2020/12/03 11:15:57;;;;;;;12.55;8.50;;;5.00;1.00;;;;;;5012647;28;20471;-63
2020/12/03 11:18:24;;;;;;;10.48;7.97;;;5.10;1.00;;;;;;5011748;28;20455;-63
2020/12/03 11:20:59;;;;;;;11.73;9.10;;;5.10;1.00;;;;;;5011689;28;20901;-67
2020/12/03 11:23:30;;;;;;;10.25;8.68;;;5.10;1.00;;;;;;5011384;28;20417;-64
2020/12/03 11:26:04;;;;;;;12.43;9.07;;;5.00;1.00;;;;;;5011787;28;20985;-63
2020/12/03 11:28:36;;;;;;;12.13;8.90;;;5.10;1.00;;;;;;5011876;28;20877;-63
2020/12/03 11:31:06;;;;;;;11.40;8.80;;;5.00;1.00;;;;;;5011545;28;20798;-63
2020/12/03 11:33:34;;;;;;;12.05;8.45;;;5.00;1.00;;;;;;5011978;28;20490;-63
2020/12/03 11:36:18;;;;;;;11.30;8.75;;;4.80;1.00;;;;;;5011898;28;20491;-63
2020/12/03 11:38:52;;;;;;;10.70;8.40;;;4.80;1.00;;;;;;5011861;28;20413;-63
2020/12/03 11:41:25;;;;;;;10.48;8.07;;;4.80;1.00;;;;;;5011602;28;20420;-64
2020/12/03 11:44:09;;;;;;;11.75;8.68;;;4.90;1.00;;;;;;5012372;28;20447;-63
2020/12/03 11:49:26;;;;;;;11.32;8.88;;;4.70;1.00;;;;;;5004228;28;20420;-61
2020/12/03 11:51:53;;;;;;;13.07;8.73;;;4.70;1.00;;;;;;5013765;28;20479;-61
2020/12/03 11:54:27;;;;;;;11.27;8.68;;;4.80;1.00;;;;;;5011656;28;20463;-62
2020/12/03 11:56:56;;;;;;;10.10;8.40;;;5.00;1.00;;;;;;5011623;28;20673;-62
2020/12/03 11:59:29;;;;;;;10.02;8.10;;;5.00;1.00;;;;;;5011115;28;20428;-65
2020/12/03 12:01:57;;;;;;;11.50;7.73;;;5.00;1.00;;;;;;5011369;28;20471;-65
2020/12/03 12:04:28;;;;;;;8.82;7.40;;;5.00;1.00;;;;;;5010972;28;20421;-63
2020/12/03 12:09:56;;;;;;;9.80;7.97;;;5.10;1.00;;;;;;5002013;28;20444;-63
2020/12/03 12:12:24;;;;;;;8.68;7.70;;;4.90;1.00;;;;;;5014738;28;20488;-64
2020/12/03 12:14:51;;;;;;;11.48;8.50;;;5.00;1.00;;;;;;5018719;28;20451;-64
2020/12/03 12:17:19;;;;;;;10.55;8.25;;;5.10;1.00;;;;;;5016553;28;20412;-63
2020/12/03 12:19:48;;;;;;;9.13;7.20;;;5.10;1.00;;;;;;5012942;28;20871;-65
2020/12/03 12:22:14;;;;;;;10.70;7.70;;;5.20;1.00;;;;;;5011468;28;20420;-64
2020/12/03 12:24:42;;;;;;;10.30;7.85;;;5.20;1.00;;;;;;5010829;28;20465;-63
2020/12/03 12:27:08;;;;;;;9.30;7.82;;;5.20;1.00;;;;;;5010527;28;20443;-63
2020/12/03 12:29:34;;;;;;;7.95;7.03;;;5.20;1.00;;;;;;5014991;28;20417;-64
2020/12/03 12:32:01;;;;;;;7.97;7.10;;;5.10;1.00;;;;;;5017685;28;20421;-63
2020/12/03 12:34:27;;;;;;;8.55;7.03;;;5.00;1.00;;;;;;5018275;28;20421;-63
2020/12/03 12:36:53;;;;;;;10.32;7.97;;;4.90;1.00;;;;;;5017243;28;20412;-63
2020/12/03 12:39:20;;;;;;;16.42;12.20;;;5.00;1.00;;;;;;5011955;28;20822;-66
2020/12/03 12:41:57;;;;;;;13.00;9.27;;;5.10;1.00;;;;;;5010878;28;20421;-65
2020/12/03 12:44:23;;;;;;;21.15;13.63;;;5.20;1.00;;;;;;5011254;28;20417;-66
2020/12/03 12:46:53;;;;;;;10.40;8.88;;;5.30;1.00;;;;;;5010949;28;20429;-67
2020/12/03 12:49:20;;;;;;;10.23;7.82;;;5.40;1.00;;;;;;5011005;28;20417;-64
2020/12/03 12:51:46;;;;;;;10.15;7.95;;;5.50;1.00;;;;;;5011573;28;20474;-67
2020/12/03 12:54:12;;;;;;;8.57;7.23;;;5.50;1.00;;;;;;5010859;28;20524;-66
2020/12/03 12:56:39;;;;;;;9.63;7.68;;;5.50;1.00;;;;;;5011315;28;20412;-65
2020/12/03 12:59:05;;;;;;;8.70;7.60;;;5.50;1.00;;;;;;5010876;28;20429;-66
2020/12/03 13:01:31;;;;;;;11.13;7.68;;;5.50;1.00;;;;;;5011247;28;20420;-66
2020/12/03 13:03:57;;;;;;;9.88;7.80;;;5.30;1.00;;;;;;5011357;28;20581;-68
2020/12/03 13:06:26;;;;;;;7.82;6.90;;;5.30;1.00;;;;;;5011393;28;20432;-68
2020/12/03 13:08:52;;;;;;;8.35;6.78;;;5.30;1.00;;;;;;5010852;28;20478;-67
2020/12/03 13:11:18;;;;;;;8.75;7.35;;;5.30;1.00;;;;;;5011503;28;20413;-67
2020/12/03 13:13:44;;;;;;;12.73;9.70;;;5.10;1.00;;;;;;5011126;28;20425;-66
2020/12/03 13:16:10;;;;;;;9.38;7.10;;;5.20;1.00;;;;;;5013078;28;20409;-67
2020/12/03 13:18:36;;;;;;;7.95;6.90;;;5.20;1.00;;;;;;5013927;28;20837;-66